sensor_id;sensor_type;location;lat;lon;timestamp;pressure;altitude;pressure_sealevel;temperature;humidity
34124;BME280;13153;52.316;21.166;2022-10-31T00:01:38;100760.03;;;14.78;58.30
34124;BME280;13153;52.316;21.166;2022-10-31T00:04:04;100760.91;;;14.79;58.03
34124;BME280;13153;52.316;21.166;2022-10-31T00:06:30;100763.53;;;14.77;57.78
34124;BME280;13153;52.316;21.166;2022-10-31T00:09:02;100768.81;;;14.76;57.86
34124;BME280;13153;52.316;21.166;2022-10-31T00:11:28;100765.28;;;14.75;57.85
34124;BME280;13153;52.316;21.166;2022-10-31T00:13:54;100764.34;;;14.72;57.75
34124;BME280;13153;52.316;21.166;2022-10-31T00:16:24;100760.78;;;14.70;57.87
34124;BME280;13153;52.316;21.166;2022-10-31T00:18:56;100762.50;;;14.68;57.59
34124;BME280;13153;52.316;21.166;2022-10-31T00:21:24;100756.31;;;14.67;58.07
34124;BME280;13153;52.316;21.166;2022-10-31T00:23:50;100758.06;;;14.65;57.39
34124;BME280;13153;52.316;21.166;2022-10-31T00:26:17;100754.47;;;14.62;57.06
34124;BME280;13153;52.316;21.166;2022-10-31T00:28:44;100758.84;;;14.60;57.55
34124;BME280;13153;52.316;21.166;2022-10-31T00:31:12;100755.28;;;14.58;57.15
34124;BME280;13153;52.316;21.166;2022-10-31T00:33:39;100759.63;;;14.54;57.45
34124;BME280;13153;52.316;21.166;2022-10-31T00:36:08;100764.00;;;14.52;57.31
34124;BME280;13153;52.316;21.166;2022-10-31T00:38:36;100763.94;;;14.47;57.37
34124;BME280;13153;52.316;21.166;2022-10-31T00:41:02;100769.19;;;14.46;57.48
34124;BME280;13153;52.316;21.166;2022-10-31T00:43:27;100781.56;;;14.44;57.43
34124;BME280;13153;52.316;21.166;2022-10-31T00:45:53;100777.91;;;14.39;57.21
34124;BME280;13153;52.316;21.166;2022-10-31T00:48:19;100781.38;;;14.36;57.17
34124;BME280;13153;52.316;21.166;2022-10-31T00:50:45;100778.69;;;14.33;56.97
34124;BME280;13153;52.316;21.166;2022-10-31T00:53:11;100780.44;;;14.33;57.14
34124;BME280;13153;52.316;21.166;2022-10-31T00:55:36;100775.91;;;14.26;57.35
34124;BME280;13153;52.316;21.166;2022-10-31T00:58:02;100776.72;;;14.21;57.28
34124;BME280;13153;52.316;21.166;2022-10-31T01:00:28;100775.75;;;14.18;57.68
34124;BME280;13153;52.316;21.166;2022-10-31T01:02:54;100777.50;;;14.16;57.50
34124;BME280;13153;52.316;21.166;2022-10-31T01:05:20;100771.25;;;14.12;57.38
34124;BME280;13153;52.316;21.166;2022-10-31T01:07:46;100780.88;;;14.09;57.25
34124;BME280;13153;52.316;21.166;2022-10-31T01:10:12;100772.91;;;14.07;57.41
34124;BME280;13153;52.316;21.166;2022-10-31T01:12:40;100776.44;;;14.06;57.26
34124;BME280;13153;52.316;21.166;2022-10-31T01:15:07;100786.13;;;14.06;57.23
34124;BME280;13153;52.316;21.166;2022-10-31T01:17:34;100783.41;;;14.03;57.15
34124;BME280;13153;52.316;21.166;2022-10-31T01:19:59;100786.03;;;14.01;57.36
34124;BME280;13153;52.316;21.166;2022-10-31T01:22:25;100781.59;;;14.00;57.65
34124;BME280;13153;52.316;21.166;2022-10-31T01:24:51;100779.81;;;13.99;57.47
34124;BME280;13153;52.316;21.166;2022-10-31T01:27:17;100780.66;;;13.97;57.29
34124;BME280;13153;52.316;21.166;2022-10-31T01:29:42;100787.66;;;13.95;57.54
34124;BME280;13153;52.316;21.166;2022-10-31T01:32:08;100785.81;;;13.91;57.69
34124;BME280;13153;52.316;21.166;2022-10-31T01:34:34;100789.31;;;13.89;57.34
34124;BME280;13153;52.316;21.166;2022-10-31T01:37:00;100784.94;;;13.90;57.46
34124;BME280;13153;52.316;21.166;2022-10-31T01:39:25;100790.16;;;13.85;57.37
34124;BME280;13153;52.316;21.166;2022-10-31T01:41:53;100789.25;;;13.83;57.16
34124;BME280;13153;52.316;21.166;2022-10-31T01:52:34;100786.47;;;13.77;57.09
34124;BME280;13153;52.316;21.166;2022-10-31T01:55:28;100793.47;;;13.75;57.18
34124;BME280;13153;52.316;21.166;2022-10-31T01:58:13;100786.38;;;13.73;57.19
34124;BME280;13153;52.316;21.166;2022-10-31T02:00:42;100781.91;;;13.70;57.88
34124;BME280;13153;52.316;21.166;2022-10-31T02:03:09;100784.50;;;13.67;57.57
34124;BME280;13153;52.316;21.166;2022-10-31T02:05:36;100779.19;;;13.66;57.26
34124;BME280;13153;52.316;21.166;2022-10-31T02:08:30;100784.44;;;13.64;57.34
34124;BME280;13153;52.316;21.166;2022-10-31T02:11:00;100792.31;;;13.61;57.42
34124;BME280;13153;52.316;21.166;2022-10-31T02:13:28;100787.03;;;13.61;57.14
34124;BME280;13153;52.316;21.166;2022-10-31T02:15:58;100789.59;;;13.58;57.64
34124;BME280;13153;52.316;21.166;2022-10-31T02:18:28;100788.69;;;13.56;57.90
34124;BME280;13153;52.316;21.166;2022-10-31T02:32:46;100792.88;;;13.46;57.48
34124;BME280;13153;52.316;21.166;2022-10-31T02:35:35;100778.66;;;13.41;57.74
34124;BME280;13153;52.316;21.166;2022-10-31T02:38:50;100786.50;;;13.37;57.45
34124;BME280;13153;52.316;21.166;2022-10-31T02:41:34;100787.31;;;13.34;57.14
34124;BME280;13153;52.316;21.166;2022-10-31T02:44:22;100781.84;;;13.24;57.05
34124;BME280;13153;52.316;21.166;2022-10-31T02:47:03;100780.09;;;13.24;57.81
34124;BME280;13153;52.316;21.166;2022-10-31T02:50:08;100795.84;;;13.19;57.70
34124;BME280;13153;52.316;21.166;2022-10-31T02:52:36;100787.84;;;13.16;57.32
34124;BME280;13153;52.316;21.166;2022-10-31T02:57:57;100790.47;;;13.16;57.04
34124;BME280;13153;52.316;21.166;2022-10-31T03:00:24;100789.53;;;13.14;57.37
34124;BME280;13153;52.316;21.166;2022-10-31T03:06:09;100798.34;;;13.15;57.76
34124;BME280;13153;52.316;21.166;2022-10-31T03:11:25;100809.78;;;13.15;57.17
34124;BME280;13153;52.316;21.166;2022-10-31T03:14:38;100808.88;;;13.13;57.13
34124;BME280;13153;52.316;21.166;2022-10-31T03:17:13;100810.59;;;13.11;57.01
34124;BME280;13153;52.316;21.166;2022-10-31T03:19:45;100807.00;;;13.09;57.22
34124;BME280;13153;52.316;21.166;2022-10-31T03:22:20;100812.22;;;13.06;57.59
34124;BME280;13153;52.316;21.166;2022-10-31T03:24:48;100815.72;;;13.05;57.58
34124;BME280;13153;52.316;21.166;2022-10-31T03:27:22;100814.94;;;13.09;57.28
34124;BME280;13153;52.316;21.166;2022-10-31T03:29:53;100811.38;;;13.07;57.41
34124;BME280;13153;52.316;21.166;2022-10-31T03:32:36;100816.66;;;13.07;56.83
34124;BME280;13153;52.316;21.166;2022-10-31T03:35:07;100816.66;;;13.07;57.12
34124;BME280;13153;52.316;21.166;2022-10-31T03:37:36;100820.94;;;13.02;57.09
34124;BME280;13153;52.316;21.166;2022-10-31T03:40:07;100824.44;;;13.01;57.09
34124;BME280;13153;52.316;21.166;2022-10-31T03:42:38;100823.47;;;12.98;56.87
34124;BME280;13153;52.316;21.166;2022-10-31T03:45:19;100823.44;;;12.96;57.00
34124;BME280;13153;52.316;21.166;2022-10-31T03:47:47;100828.72;;;12.96;57.32
34124;BME280;13153;52.316;21.166;2022-10-31T03:50:15;100824.28;;;12.95;57.60
34124;BME280;13153;52.316;21.166;2022-10-31T03:53:08;100824.22;;;12.92;57.27
34124;BME280;13153;52.316;21.166;2022-10-31T03:55:53;100835.63;;;12.91;56.99
34124;BME280;13153;52.316;21.166;2022-10-31T03:58:29;100834.78;;;12.92;56.90
34124;BME280;13153;52.316;21.166;2022-10-31T04:01:01;100826.84;;;12.92;56.84
34124;BME280;13153;52.316;21.166;2022-10-31T04:03:33;100836.47;;;12.90;56.71
34124;BME280;13153;52.316;21.166;2022-10-31T04:06:08;100840.78;;;12.86;57.27
34124;BME280;13153;52.316;21.166;2022-10-31T04:08:52;100846.09;;;12.86;57.36
34124;BME280;13153;52.316;21.166;2022-10-31T04:11:25;100845.97;;;12.82;57.39
34124;BME280;13153;52.316;21.166;2022-10-31T04:13:56;100850.34;;;12.81;57.19
34124;BME280;13153;52.316;21.166;2022-10-31T04:16:26;100852.03;;;12.78;57.08
34124;BME280;13153;52.316;21.166;2022-10-31T04:18:52;100838.75;;;12.75;57.58
34124;BME280;13153;52.316;21.166;2022-10-31T04:21:18;100844.00;;;12.73;57.61
34124;BME280;13153;52.316;21.166;2022-10-31T04:23:44;100838.66;;;12.72;57.58
34124;BME280;13153;52.316;21.166;2022-10-31T04:26:12;100837.78;;;12.70;57.86
34124;BME280;13153;52.316;21.166;2022-10-31T04:28:38;100840.41;;;12.70;57.70
34124;BME280;13153;52.316;21.166;2022-10-31T04:31:05;100839.44;;;12.66;57.35
34124;BME280;13153;52.316;21.166;2022-10-31T04:33:30;100842.91;;;12.64;57.35
34124;BME280;13153;52.316;21.166;2022-10-31T04:35:56;100847.28;;;12.63;57.59
34124;BME280;13153;52.316;21.166;2022-10-31T04:38:22;100848.09;;;12.61;57.65
34124;BME280;13153;52.316;21.166;2022-10-31T04:40:48;100841.88;;;12.59;57.55
34124;BME280;13153;52.316;21.166;2022-10-31T04:43:13;100848.00;;;12.57;57.41
34124;BME280;13153;52.316;21.166;2022-10-31T04:45:39;100848.91;;;12.58;57.24
34124;BME280;13153;52.316;21.166;2022-10-31T04:48:05;100852.25;;;12.51;57.33
34124;BME280;13153;52.316;21.166;2022-10-31T04:50:31;100859.19;;;12.47;57.38
34124;BME280;13153;52.316;21.166;2022-10-31T04:52:56;100857.41;;;12.46;57.43
34124;BME280;13153;52.316;21.166;2022-10-31T04:55:22;100862.75;;;12.49;57.35
34124;BME280;13153;52.316;21.166;2022-10-31T04:57:49;100867.16;;;12.49;57.47
34124;BME280;13153;52.316;21.166;2022-10-31T05:00:18;100865.41;;;12.49;57.89
34124;BME280;13153;52.316;21.166;2022-10-31T05:02:51;100861.81;;;12.47;57.80
34124;BME280;13153;52.316;21.166;2022-10-31T05:05:19;100865.28;;;12.45;58.28
34124;BME280;13153;52.316;21.166;2022-10-31T05:07:48;100863.44;;;12.42;57.92
34124;BME280;13153;52.316;21.166;2022-10-31T05:10:19;100867.78;;;12.40;58.41
34124;BME280;13153;52.316;21.166;2022-10-31T05:12:50;100870.38;;;12.39;58.59
34124;BME280;13153;52.316;21.166;2022-10-31T05:15:18;100865.06;;;12.37;58.28
34124;BME280;13153;52.316;21.166;2022-10-31T05:17:45;100874.69;;;12.35;58.59
34124;BME280;13153;52.316;21.166;2022-10-31T05:20:13;100865.78;;;12.32;59.06
34124;BME280;13153;52.316;21.166;2022-10-31T05:22:49;100868.13;;;12.21;59.71
34124;BME280;13153;52.316;21.166;2022-10-31T05:25:17;100866.34;;;12.20;59.93
34124;BME280;13153;52.316;21.166;2022-10-31T05:27:47;100875.13;;;12.19;59.78
34124;BME280;13153;52.316;21.166;2022-10-31T05:30:17;100867.19;;;12.19;59.46
34124;BME280;13153;52.316;21.166;2022-10-31T05:32:46;100865.44;;;12.19;59.40
34124;BME280;13153;52.316;21.166;2022-10-31T05:35:17;100866.34;;;12.20;59.46
34124;BME280;13153;52.316;21.166;2022-10-31T05:37:43;100868.13;;;12.21;59.16
34124;BME280;13153;52.316;21.166;2022-10-31T05:40:12;100872.47;;;12.19;59.22
34124;BME280;13153;52.316;21.166;2022-10-31T05:42:39;100890.13;;;12.21;59.03
34124;BME280;13153;52.316;21.166;2022-10-31T05:45:09;100884.91;;;12.23;59.02
34124;BME280;13153;52.316;21.166;2022-10-31T05:47:35;100885.78;;;12.23;58.94
34124;BME280;13153;52.316;21.166;2022-10-31T05:50:01;100885.00;;;12.26;59.14
34124;BME280;13153;52.316;21.166;2022-10-31T05:52:26;100885.06;;;12.29;58.97
34124;BME280;13153;52.316;21.166;2022-10-31T05:54:52;100883.41;;;12.33;58.86
34124;BME280;13153;52.316;21.166;2022-10-31T05:57:18;100887.72;;;12.29;58.48
34124;BME280;13153;52.316;21.166;2022-10-31T05:59:44;100886.59;;;12.21;58.87
34124;BME280;13153;52.316;21.166;2022-10-31T06:02:09;100886.78;;;12.27;59.66
34124;BME280;13153;52.316;21.166;2022-10-31T06:04:35;100892.31;;;12.36;59.22
34124;BME280;13153;52.316;21.166;2022-10-31T06:07:01;100891.63;;;12.43;59.16
34124;BME280;13153;52.316;21.166;2022-10-31T06:09:27;100884.78;;;12.50;58.46
34124;BME280;13153;52.316;21.166;2022-10-31T06:11:53;100889.28;;;12.54;58.08
34124;BME280;13153;52.316;21.166;2022-10-31T06:14:18;100887.31;;;12.47;57.88
34124;BME280;13153;52.316;21.166;2022-10-31T06:16:44;100877.53;;;12.43;58.21
34124;BME280;13153;52.316;21.166;2022-10-31T06:19:10;100887.16;;;12.41;58.23
34124;BME280;13153;52.316;21.166;2022-10-31T06:21:35;100886.25;;;12.40;58.62
34124;BME280;13153;52.316;21.166;2022-10-31T06:24:01;100887.88;;;12.35;58.87
34124;BME280;13153;52.316;21.166;2022-10-31T06:26:27;100892.19;;;12.32;58.93
34124;BME280;13153;52.316;21.166;2022-10-31T06:28:53;100893.03;;;12.31;59.64
34124;BME280;13153;52.316;21.166;2022-10-31T06:31:19;100896.81;;;12.40;59.31
34124;BME280;13153;52.316;21.166;2022-10-31T06:33:44;100907.34;;;12.39;59.96
34124;BME280;13153;52.316;21.166;2022-10-31T06:36:10;100903.00;;;12.41;60.38
34124;BME280;13153;52.316;21.166;2022-10-31T06:38:36;100894.34;;;12.46;60.14
34124;BME280;13153;52.316;21.166;2022-10-31T06:41:04;100897.00;;;12.46;60.48
34124;BME280;13153;52.316;21.166;2022-10-31T06:43:30;100904.44;;;12.61;60.87
34124;BME280;13153;52.316;21.166;2022-10-31T06:45:57;100908.94;;;12.65;60.15
34124;BME280;13153;52.316;21.166;2022-10-31T06:48:26;100905.13;;;12.54;59.95
34124;BME280;13153;52.316;21.166;2022-10-31T06:50:52;100905.34;;;12.30;60.31
34124;BME280;13153;52.316;21.166;2022-10-31T06:53:18;100916.91;;;12.35;61.51
34124;BME280;13153;52.316;21.166;2022-10-31T06:55:44;100912.44;;;12.33;61.20
34124;BME280;13153;52.316;21.166;2022-10-31T06:58:10;100913.56;;;12.41;61.78
34124;BME280;13153;52.316;21.166;2022-10-31T07:00:37;100905.38;;;12.63;61.97
34124;BME280;13153;52.316;21.166;2022-10-31T07:03:06;100904.31;;;12.91;61.09
34124;BME280;13153;52.316;21.166;2022-10-31T07:05:32;100909.59;;;13.26;61.18
34124;BME280;13153;52.316;21.166;2022-10-31T07:08:02;100912.94;;;13.56;60.49
34124;BME280;13153;52.316;21.166;2022-10-31T07:10:33;100909.97;;;13.80;59.35
34124;BME280;13153;52.316;21.166;2022-10-31T07:13:03;100916.66;;;14.06;58.67
34124;BME280;13153;52.316;21.166;2022-10-31T07:15:34;100913.56;;;14.27;58.67
34124;BME280;13153;52.316;21.166;2022-10-31T07:18:05;100913.19;;;14.52;58.22
34124;BME280;13153;52.316;21.166;2022-10-31T07:20:31;100907.66;;;14.87;57.67
34124;BME280;13153;52.316;21.166;2022-10-31T07:22:58;100916.13;;;15.19;56.93
34124;BME280;13153;52.316;21.166;2022-10-31T07:25:25;100915.81;;;15.55;56.57
34124;BME280;13153;52.316;21.166;2022-10-31T07:27:50;100918.09;;;15.90;55.75
34124;BME280;13153;52.316;21.166;2022-10-31T07:30:17;100914.91;;;16.16;55.27
34124;BME280;13153;52.316;21.166;2022-10-31T07:32:48;100915.91;;;16.29;54.29
34124;BME280;13153;52.316;21.166;2022-10-31T07:35:20;100920.63;;;16.55;54.58
34124;BME280;13153;52.316;21.166;2022-10-31T07:37:47;100920.84;;;16.76;54.21
34124;BME280;13153;52.316;21.166;2022-10-31T07:40:13;100922.81;;;16.94;53.49
34124;BME280;13153;52.316;21.166;2022-10-31T07:42:42;100922.00;;;17.02;53.45
34124;BME280;13153;52.316;21.166;2022-10-31T07:45:12;100919.50;;;17.19;53.12
34124;BME280;13153;52.316;21.166;2022-10-31T07:47:49;100916.06;;;17.37;52.63
34124;BME280;13153;52.316;21.166;2022-10-31T07:50:21;100913.50;;;17.52;52.68
34124;BME280;13153;52.316;21.166;2022-10-31T07:52:48;100914.53;;;17.69;53.02
34124;BME280;13153;52.316;21.166;2022-10-31T07:55:14;100915.50;;;17.82;52.48
34124;BME280;13153;52.316;21.166;2022-10-31T07:57:40;100916.44;;;17.96;52.57
34124;BME280;13153;52.316;21.166;2022-10-31T08:00:09;100918.28;;;18.08;52.75
34124;BME280;13153;52.316;21.166;2022-10-31T08:02:35;100912.97;;;18.14;52.68
34124;BME280;13153;52.316;21.166;2022-10-31T08:05:01;100922.78;;;18.26;52.47
34124;BME280;13153;52.316;21.166;2022-10-31T08:07:35;100916.59;;;18.28;52.58
34124;BME280;13153;52.316;21.166;2022-10-31T08:10:02;100918.38;;;18.29;52.70
34124;BME280;13153;52.316;21.166;2022-10-31T08:12:27;100924.59;;;18.36;52.82
34124;BME280;13153;52.316;21.166;2022-10-31T08:14:53;100922.84;;;18.55;52.53
34124;BME280;13153;52.316;21.166;2022-10-31T08:17:19;100915.81;;;18.69;52.89
34124;BME280;13153;52.316;21.166;2022-10-31T08:19:45;100923.84;;;18.87;52.73
34124;BME280;13153;52.316;21.166;2022-10-31T08:22:11;100930.97;;;18.97;51.97
34124;BME280;13153;52.316;21.166;2022-10-31T08:24:36;100930.06;;;19.09;52.34
34124;BME280;13153;52.316;21.166;2022-10-31T08:27:02;100931.84;;;19.27;51.64
34124;BME280;13153;52.316;21.166;2022-10-31T08:29:28;100928.28;;;19.48;51.67
34124;BME280;13153;52.316;21.166;2022-10-31T08:31:54;100929.16;;;19.66;51.46
34124;BME280;13153;52.316;21.166;2022-10-31T08:34:19;100938.03;;;19.74;51.26
34124;BME280;13153;52.316;21.166;2022-10-31T08:36:45;100936.31;;;19.63;51.43
34124;BME280;13153;52.316;21.166;2022-10-31T08:39:11;100935.41;;;19.47;51.63
34124;BME280;13153;52.316;21.166;2022-10-31T08:41:37;100939.84;;;19.48;52.35
34124;BME280;13153;52.316;21.166;2022-10-31T08:44:03;100942.56;;;19.53;52.33
34124;BME280;13153;52.316;21.166;2022-10-31T08:46:29;100947.00;;;19.63;52.02
34124;BME280;13153;52.316;21.166;2022-10-31T08:48:54;100952.28;;;19.76;51.62
34124;BME280;13153;52.316;21.166;2022-10-31T08:51:20;100951.38;;;19.90;51.52
34124;BME280;13153;52.316;21.166;2022-10-31T08:53:46;100947.78;;;20.00;51.02
34124;BME280;13153;52.316;21.166;2022-10-31T08:56:12;100950.44;;;20.09;50.73
34124;BME280;13153;52.316;21.166;2022-10-31T08:58:37;100946.84;;;20.16;50.93
34124;BME280;13153;52.316;21.166;2022-10-31T09:01:03;100956.66;;;20.14;50.47
34124;BME280;13153;52.316;21.166;2022-10-31T09:03:30;100950.41;;;20.14;50.62
34124;BME280;13153;52.316;21.166;2022-10-31T09:06:02;100952.13;;;20.22;50.66
34124;BME280;13153;52.316;21.166;2022-10-31T09:08:32;100957.44;;;20.34;51.85
34124;BME280;13153;52.316;21.166;2022-10-31T09:10:59;100952.09;;;20.40;49.57
34124;BME280;13153;52.316;21.166;2022-10-31T09:13:25;100951.19;;;20.35;49.43
34124;BME280;13153;52.316;21.166;2022-10-31T09:15:51;100953.88;;;20.35;49.57
34124;BME280;13153;52.316;21.166;2022-10-31T09:18:21;100955.63;;;20.46;49.82
34124;BME280;13153;52.316;21.166;2022-10-31T09:20:48;100950.22;;;20.58;49.96
34124;BME280;13153;52.316;21.166;2022-10-31T09:23:18;100953.78;;;20.63;50.28
34124;BME280;13153;52.316;21.166;2022-10-31T09:25:48;100952.88;;;20.64;49.21
34124;BME280;13153;52.316;21.166;2022-10-31T09:28:17;100957.31;;;20.66;49.97
34124;BME280;13153;52.316;21.166;2022-10-31T09:30:51;100956.31;;;20.81;50.53
34124;BME280;13153;52.316;21.166;2022-10-31T09:33:18;100952.63;;;20.99;50.07
34124;BME280;13153;52.316;21.166;2022-10-31T09:35:44;100952.53;;;21.14;49.35
34124;BME280;13153;52.316;21.166;2022-10-31T09:38:13;100952.47;;;21.20;48.69
34124;BME280;13153;52.316;21.166;2022-10-31T09:40:47;100947.13;;;21.23;48.89
34124;BME280;13153;52.316;21.166;2022-10-31T09:46:32;100956.06;;;21.16;48.88
34124;BME280;13153;52.316;21.166;2022-10-31T09:52:22;100951.72;;;21.01;48.93
34124;BME280;13153;52.316;21.166;2022-10-31T09:55:00;100955.31;;;20.97;48.84
34124;BME280;13153;52.316;21.166;2022-10-31T09:57:33;100950.84;;;20.98;48.91
34124;BME280;13153;52.316;21.166;2022-10-31T10:00:04;100952.59;;;21.02;48.78
34124;BME280;13153;52.316;21.166;2022-10-31T10:02:39;100950.81;;;21.04;48.92
34124;BME280;13153;52.316;21.166;2022-10-31T10:05:48;100956.16;;;21.05;48.30
34124;BME280;13153;52.316;21.166;2022-10-31T10:08:23;100953.44;;;21.08;48.47
34124;BME280;13153;52.316;21.166;2022-10-31T10:28:21;100925.88;;;20.97;48.74
34124;BME280;13153;52.316;21.166;2022-10-31T10:31:06;100927.66;;;20.98;48.54
34124;BME280;13153;52.316;21.166;2022-10-31T10:33:40;100926.75;;;21.01;48.79
34124;BME280;13153;52.316;21.166;2022-10-31T10:36:27;100932.09;;;21.02;48.33
34124;BME280;13153;52.316;21.166;2022-10-31T10:39:11;100925.88;;;20.99;48.58
34124;BME280;13153;52.316;21.166;2022-10-31T10:41:45;100921.41;;;20.98;48.26
34124;BME280;13153;52.316;21.166;2022-10-31T10:44:12;100924.13;;;20.95;48.71
34124;BME280;13153;52.316;21.166;2022-10-31T10:46:55;100933.06;;;20.92;48.63
34124;BME280;13153;52.316;21.166;2022-10-31T10:49:52;100921.44;;;20.96;48.62
34124;BME280;13153;52.316;21.166;2022-10-31T10:56:15;100925.00;;;20.95;48.70
34124;BME280;13153;52.316;21.166;2022-10-31T10:58:42;100926.81;;;20.93;48.35
34124;BME280;13153;52.316;21.166;2022-10-31T11:01:15;100923.25;;;20.91;48.84
34124;BME280;13153;52.316;21.166;2022-10-31T11:03:41;100931.25;;;20.93;48.81
34124;BME280;13153;52.316;21.166;2022-10-31T11:06:24;100923.28;;;20.88;49.37
34124;BME280;13153;52.316;21.166;2022-10-31T11:08:53;100923.28;;;20.85;49.15
34124;BME280;13153;52.316;21.166;2022-10-31T11:11:24;100923.31;;;20.84;49.72
34124;BME280;13153;52.316;21.166;2022-10-31T11:14:13;100920.63;;;20.85;49.69
34124;BME280;13153;52.316;21.166;2022-10-31T11:16:45;100922.41;;;20.85;49.83
34124;BME280;13153;52.316;21.166;2022-10-31T11:19:21;100929.53;;;20.87;49.87
34124;BME280;13153;52.316;21.166;2022-10-31T11:21:48;100923.28;;;20.88;49.71
34124;BME280;13153;52.316;21.166;2022-10-31T11:24:19;100924.16;;;20.90;49.71
34124;BME280;13153;52.316;21.166;2022-10-31T11:26:49;100920.59;;;20.88;50.02
34124;BME280;13153;52.316;21.166;2022-10-31T11:29:24;100923.28;;;20.88;50.00
34124;BME280;13153;52.316;21.166;2022-10-31T11:31:54;100914.38;;;20.85;50.37
34124;BME280;13153;52.316;21.166;2022-10-31T11:34:32;100911.72;;;20.82;50.65
34124;BME280;13153;52.316;21.166;2022-10-31T11:37:15;100910.94;;;20.69;50.51
34124;BME280;13153;52.316;21.166;2022-10-31T11:39:46;100905.66;;;20.60;50.72
34124;BME280;13153;52.316;21.166;2022-10-31T11:42:35;100911.88;;;20.60;51.25
34124;BME280;13153;52.316;21.166;2022-10-31T11:45:14;100914.56;;;20.62;51.44
34124;BME280;13153;52.316;21.166;2022-10-31T11:47:47;100911.88;;;20.65;51.70
34124;BME280;13153;52.316;21.166;2022-10-31T11:50:23;100913.63;;;20.67;51.29
34124;BME280;13153;52.316;21.166;2022-10-31T11:52:51;100916.28;;;20.69;51.58
34124;BME280;13153;52.316;21.166;2022-10-31T11:55:38;100904.69;;;20.71;51.57
34124;BME280;13153;52.316;21.166;2022-10-31T11:58:24;100909.16;;;20.71;51.76
34124;BME280;13153;52.316;21.166;2022-10-31T12:00:55;100899.34;;;20.70;51.44
34124;BME280;13153;52.316;21.166;2022-10-31T12:03:54;100904.72;;;20.68;51.69
34124;BME280;13153;52.316;21.166;2022-10-31T12:06:46;100899.38;;;20.65;51.66
34124;BME280;13153;52.316;21.166;2022-10-31T12:09:26;100906.50;;;20.65;51.56
34124;BME280;13153;52.316;21.166;2022-10-31T12:12:10;100902.09;;;20.61;51.88
34124;BME280;13153;52.316;21.166;2022-10-31T12:17:51;100898.53;;;20.56;51.92
34124;BME280;13153;52.316;21.166;2022-10-31T12:32:13;100887.75;;;20.69;52.24
34124;BME280;13153;52.316;21.166;2022-10-31T12:40:43;100890.41;;;20.74;52.22
34124;BME280;13153;52.316;21.166;2022-10-31T12:43:35;100882.38;;;20.74;52.32
34124;BME280;13153;52.316;21.166;2022-10-31T12:46:04;100878.81;;;20.73;52.61
34124;BME280;13153;52.316;21.166;2022-10-31T12:54:48;100885.06;;;20.74;52.46
34124;BME280;13153;52.316;21.166;2022-10-31T12:57:31;100883.25;;;20.76;52.72
34124;BME280;13153;52.316;21.166;2022-10-31T13:05:40;100882.38;;;20.75;52.58
34124;BME280;13153;52.316;21.166;2022-10-31T13:11:48;100885.06;;;20.75;52.30
34124;BME280;13153;52.316;21.166;2022-10-31T13:14:53;100883.28;;;20.74;52.48
34124;BME280;13153;52.316;21.166;2022-10-31T13:20:04;100877.91;;;20.76;52.60
34124;BME280;13153;52.316;21.166;2022-10-31T13:22:34;100879.69;;;20.77;52.50
34124;BME280;13153;52.316;21.166;2022-10-31T13:25:28;100869.88;;;20.79;52.95
34124;BME280;13153;52.316;21.166;2022-10-31T13:28:27;100882.34;;;20.79;52.91
34124;BME280;13153;52.316;21.166;2022-10-31T13:30:53;100870.78;;;20.78;52.83
34124;BME280;13153;52.316;21.166;2022-10-31T13:33:27;100872.56;;;20.76;53.08
34124;BME280;13153;52.316;21.166;2022-10-31T13:38:55;100878.81;;;20.75;52.81
34124;BME280;13153;52.316;21.166;2022-10-31T13:41:34;100871.69;;;20.74;52.96
34124;BME280;13153;52.316;21.166;2022-10-31T13:44:21;100879.72;;;20.74;53.20
34124;BME280;13153;52.316;21.166;2022-10-31T13:46:50;100878.81;;;20.75;54.26
34124;BME280;13153;52.316;21.166;2022-10-31T13:49:39;100880.56;;;20.77;55.17
34124;BME280;13153;52.316;21.166;2022-10-31T13:52:26;100869.88;;;20.79;55.15
34124;BME280;13153;52.316;21.166;2022-10-31T13:54:53;100870.72;;;20.81;55.19
34124;BME280;13153;52.316;21.166;2022-10-31T13:57:34;100864.53;;;20.79;54.99
34124;BME280;13153;52.316;21.166;2022-10-31T14:00:23;100861.84;;;20.79;55.60
34124;BME280;13153;52.316;21.166;2022-10-31T14:02:53;100865.38;;;20.81;54.63
34124;BME280;13153;52.316;21.166;2022-10-31T14:05:30;100868.03;;;20.83;54.63
34124;BME280;13153;52.316;21.166;2022-10-31T14:08:02;100861.78;;;20.82;54.91
34124;BME280;13153;52.316;21.166;2022-10-31T14:10:37;100875.16;;;20.82;55.79
34124;BME280;13153;52.316;21.166;2022-10-31T14:13:30;100861.84;;;20.79;55.55
34124;BME280;13153;52.316;21.166;2022-10-31T14:15:59;100857.41;;;20.75;55.29
34124;BME280;13153;52.316;21.166;2022-10-31T14:18:37;100862.78;;;20.70;54.82
34124;BME280;13153;52.316;21.166;2022-10-31T14:23:54;100859.28;;;20.64;54.75
34124;BME280;13153;52.316;21.166;2022-10-31T14:28:54;100857.56;;;20.55;54.95
34124;BME280;13153;52.316;21.166;2022-10-31T14:31:37;100861.13;;;20.51;55.35
34124;BME280;13153;52.316;21.166;2022-10-31T14:34:41;100861.19;;;20.43;54.68
34124;BME280;13153;52.316;21.166;2022-10-31T14:43:48;100859.44;;;20.32;55.62
34124;BME280;13153;52.316;21.166;2022-10-31T14:47:09;100863.03;;;20.26;56.47
34124;BME280;13153;52.316;21.166;2022-10-31T14:50:16;100861.31;;;20.21;56.56
34124;BME280;13153;52.316;21.166;2022-10-31T14:52:51;100869.34;;;20.16;56.19
34124;BME280;13153;52.316;21.166;2022-10-31T14:55:19;100864.91;;;20.12;56.52